Darstellungsparameter: Aktuell verwendete Einstellungen:
Skalierung der Graphiken ... ?
xyx+y,   Skalierungsfaktor:      Skalierung: Modus: x, Faktor: 1
Darstellungszeitraum ... ?
Vom - - bis: - -   Zeitraum: 26.05.2014 - 26.05.2014
Min/Max/Avg-Anzeige ... ?
Zeige MMA aktuell
Zeige MMA Monat
Zeige MMA alles
Zeige --A aktuell
Zeige --A Monat
Zeige --A alles
Keine MMA-Anzeige
MMA:
Keine MMA-Graphiken
MMA-Basis: 26.05.2014 - 26.05.2014
Quicknavigation für Darstellung... ?
Tage:      1T, 2T, 3T, 5T -1T -2T -3T -5T +1T +2T +3T +5T
Wochen: 1W, 2W, 3W -1W -2W -3W +1W +2W +3W
Monate: 1M, 3M, 6M -1M -3M -6M +1M +3M +6M
Jahre:    1J, 3J, 5J, 10J -1J -3J -5J -10J +1J +3J +5J +10J
Nutze für die Darstellung ... ?
Originaldaten oder Mittelwerte auf ...
Stundenbasis Tagesbasis Wochenbasis
Monatsbasis Jahresbasis      Datenbasis: Original-Daten
Darstellen als:
Statistik (Auto) Statistik J:M      Darstellung:
Zur Graphik,    zurück zur Übersicht aller Sensoren.
 
Tabellarische Datenbersicht: ?
 
Sensor: Nr:Datum:Temp:Abs-Feuchte:Windchill:Wind:
Aussen-T/F 1 26-05-2014 00:00:00 14.6 C 10.26 g/m*3 14.6 C 0 km/h
2 26-05-2014 00:05:00 14.6 C 10.14 g/m*3 14.6 C 0 km/h
3 26-05-2014 00:10:00 14.5 C 10.07 g/m*3 14.5 C 0 km/h
4 26-05-2014 00:15:00 14.4 C 10.14 g/m*3 14.4 C 0 km/h
5 26-05-2014 00:20:00 14.3 C 10.07 g/m*3 14.3 C 0 km/h
6 26-05-2014 00:25:00 14.3 C 10.2 g/m*3 14.3 C 0 km/h
7 26-05-2014 00:30:00 14.2 C 10.14 g/m*3 14.2 C 0 km/h
8 26-05-2014 00:35:00 14.1 C 10.07 g/m*3 14.1 C 0 km/h
9 26-05-2014 00:40:00 13.9 C 9.95 g/m*3 13.9 C 0 km/h
10 26-05-2014 00:45:00 13.9 C 9.95 g/m*3 13.9 C 0 km/h
11 26-05-2014 00:50:00 13.9 C 9.95 g/m*3 13.9 C 0 km/h
12 26-05-2014 00:55:00 13.9 C 9.95 g/m*3 13.9 C 0 km/h
13 26-05-2014 01:00:00 14 C 10.01 g/m*3 14 C 0 km/h
14 26-05-2014 01:05:00 14 C 10.01 g/m*3 14 C 0 km/h
15 26-05-2014 01:10:00 13.9 C 9.95 g/m*3 13.9 C 0 km/h
16 26-05-2014 01:15:00 13.9 C 9.95 g/m*3 13.9 C 0 km/h
17 26-05-2014 01:20:00 13.9 C 9.83 g/m*3 13.9 C 0 km/h
18 26-05-2014 01:25:00 13.9 C 9.95 g/m*3 13.9 C 0 km/h
19 26-05-2014 01:30:00 13.8 C 9.89 g/m*3 13.8 C 0 km/h
20 26-05-2014 01:35:00 13.8 C 9.89 g/m*3 13.8 C 0 km/h
21 26-05-2014 01:40:00 13.7 C 9.71 g/m*3 13.7 C 0 km/h
22 26-05-2014 01:45:00 13.7 C 9.83 g/m*3 13.7 C 0 km/h
23 26-05-2014 01:50:00 13.7 C 9.95 g/m*3 13.7 C 0 km/h
24 26-05-2014 01:55:00 13.6 C 9.89 g/m*3 13.6 C 0 km/h
25 26-05-2014 02:00:00 13.5 C 9.83 g/m*3 13.5 C 0 km/h
Sensor: Nr:Datum:Temp:Abs-Feuchte:Windchill:Wind:
Aussen-T/F 26 26-05-2014 02:05:00 13.4 C 9.88 g/m*3 13.4 C 0 km/h
27 26-05-2014 02:10:00 13.4 C 10 g/m*3 13.4 C 0 km/h
28 26-05-2014 02:15:00 13.4 C 10 g/m*3 13.4 C 0 km/h
29 26-05-2014 02:20:00 13.3 C 9.82 g/m*3 13.3 C 0 km/h
30 26-05-2014 02:25:00 13.3 C 9.82 g/m*3 13.3 C 0 km/h
31 26-05-2014 02:30:00 13.3 C 9.82 g/m*3 13.3 C 0 km/h
32 26-05-2014 02:35:00 13.2 C 9.76 g/m*3 13.2 C 0 km/h
33 26-05-2014 02:40:00 13.2 C 9.87 g/m*3 13.2 C 0 km/h
34 26-05-2014 02:45:00 13.2 C 9.87 g/m*3 13.2 C 0 km/h
35 26-05-2014 02:50:00 13.2 C 9.87 g/m*3 13.2 C 0 km/h
36 26-05-2014 02:55:00 13.1 C 9.81 g/m*3 13.1 C 0 km/h
37 26-05-2014 03:00:00 13.1 C 9.81 g/m*3 13.1 C 0 km/h
38 26-05-2014 03:05:00 13.1 C 9.93 g/m*3 13.1 C 0 km/h
39 26-05-2014 03:10:00 13.1 C 9.93 g/m*3 13.1 C 0 km/h
40 26-05-2014 03:15:00 13 C 9.75 g/m*3 13 C 0 km/h
41 26-05-2014 03:20:00 13 C 9.75 g/m*3 13 C 0 km/h
42 26-05-2014 03:25:00 13 C 9.75 g/m*3 13 C 0 km/h
43 26-05-2014 03:30:00 13 C 9.87 g/m*3 13 C 0 km/h
44 26-05-2014 03:35:00 12.9 C 9.81 g/m*3 12.9 C 0 km/h
45 26-05-2014 03:40:00 12.9 C 9.81 g/m*3 12.9 C 0 km/h
46 26-05-2014 03:45:00 12.9 C 9.92 g/m*3 12.9 C 0 km/h
47 26-05-2014 03:50:00 12.8 C 9.74 g/m*3 12.8 C 0 km/h
48 26-05-2014 03:55:00 12.8 C 9.74 g/m*3 12.8 C 0 km/h
49 26-05-2014 04:00:00 12.8 C 9.86 g/m*3 12.8 C 0 km/h
50 26-05-2014 04:05:00 12.8 C 9.86 g/m*3 12.8 C 0 km/h
Sensor: Nr:Datum:Temp:Abs-Feuchte:Windchill:Wind:
Aussen-T/F 51 26-05-2014 04:10:00 12.8 C 9.86 g/m*3 12.8 C 0 km/h
52 26-05-2014 04:15:00 12.8 C 9.86 g/m*3 12.8 C 0 km/h
53 26-05-2014 04:20:00 12.8 C 9.86 g/m*3 12.8 C 0 km/h
54 26-05-2014 04:25:00 12.8 C 9.86 g/m*3 12.8 C 0 km/h
55 26-05-2014 04:30:00 12.8 C 9.86 g/m*3 12.8 C 0 km/h
56 26-05-2014 04:35:00 12.7 C 9.8 g/m*3 12.7 C 0 km/h
57 26-05-2014 04:40:00 12.8 C 9.86 g/m*3 12.8 C 0 km/h
58 26-05-2014 04:45:00 12.7 C 9.8 g/m*3 12.7 C 0 km/h
59 26-05-2014 04:50:00 12.8 C 9.97 g/m*3 12.8 C 0 km/h
60 26-05-2014 04:55:00 12.8 C 9.97 g/m*3 12.8 C 0 km/h
61 26-05-2014 05:00:00 12.8 C 9.86 g/m*3 12.8 C 0 km/h
62 26-05-2014 05:05:00 12.8 C 9.86 g/m*3 12.8 C 0 km/h
63 26-05-2014 05:10:00 12.8 C 9.86 g/m*3 12.8 C 0 km/h
64 26-05-2014 05:15:00 12.9 C 9.92 g/m*3 12.9 C 0 km/h
65 26-05-2014 05:20:00 13 C 9.98 g/m*3 13 C 0 km/h
66 26-05-2014 05:25:00 13.1 C 10.04 g/m*3 13.1 C 0 km/h
67 26-05-2014 05:30:00 13.1 C 10.04 g/m*3 13.1 C 0 km/h
68 26-05-2014 05:35:00 13.2 C 10.1 g/m*3 13.2 C 0 km/h
69 26-05-2014 05:40:00 13.2 C 10.1 g/m*3 13.2 C 0 km/h
70 26-05-2014 05:45:00 13.2 C 10.1 g/m*3 13.2 C 0 km/h
71 26-05-2014 05:50:00 13.2 C 10.1 g/m*3 13.2 C 0 km/h
72 26-05-2014 05:55:00 13.2 C 10.1 g/m*3 13.2 C 0 km/h
73 26-05-2014 06:00:00 13.2 C 10.1 g/m*3 13.2 C 0 km/h
74 26-05-2014 06:05:00 13.2 C 10.1 g/m*3 13.2 C 0 km/h
75 26-05-2014 06:10:00 13.2 C 10.22 g/m*3 13.2 C 0 km/h
Sensor: Nr:Datum:Temp:Abs-Feuchte:Windchill:Wind:
Aussen-T/F 76 26-05-2014 06:15:00 13.2 C 10.22 g/m*3 13.2 C 0 km/h
77 26-05-2014 06:20:00 13.2 C 10.22 g/m*3 13.2 C 0 km/h
78 26-05-2014 06:25:00 13.2 C 10.22 g/m*3 13.2 C 0 km/h
79 26-05-2014 06:30:00 13.2 C 10.22 g/m*3 13.2 C 0 km/h
80 26-05-2014 06:35:00 13.2 C 10.22 g/m*3 13.2 C 0 km/h
81 26-05-2014 06:40:00 13.2 C 10.22 g/m*3 13.2 C 0 km/h
82 26-05-2014 06:45:00 13.3 C 10.28 g/m*3 13.3 C 0 km/h
83 26-05-2014 06:50:00 13.3 C 10.28 g/m*3 13.3 C 0 km/h
84 26-05-2014 06:55:00 13.3 C 10.4 g/m*3 13.3 C 0 km/h
85 26-05-2014 07:00:00 13.3 C 10.4 g/m*3 13.3 C 0 km/h
86 26-05-2014 07:05:00 13.3 C 10.4 g/m*3 13.3 C 0 km/h
87 26-05-2014 07:10:00 13.3 C 10.4 g/m*3 13.3 C 0 km/h
88 26-05-2014 07:15:00 13.4 C 10.46 g/m*3 13.4 C 1.6 km/h
89 26-05-2014 07:20:00 13.4 C 10.46 g/m*3 13.4 C 0 km/h
90 26-05-2014 07:25:00 13.4 C 10.46 g/m*3 13.4 C 3.2 km/h
91 26-05-2014 07:30:00 13.5 C 10.53 g/m*3 13.5 C 3.2 km/h
92 26-05-2014 07:35:00 13.6 C 10.59 g/m*3 13.6 C 0 km/h
93 26-05-2014 07:40:00 13.7 C 10.66 g/m*3 13.7 C 0 km/h
94 26-05-2014 07:45:00 13.8 C 10.72 g/m*3 13.8 C 0 km/h
95 26-05-2014 07:50:00 13.8 C 10.72 g/m*3 13.8 C 0 km/h
96 26-05-2014 07:55:00 13.9 C 10.91 g/m*3 13.9 C 0 km/h
97 26-05-2014 08:00:00 14.1 C 11.04 g/m*3 14.1 C 0 km/h
98 26-05-2014 08:05:00 14.2 C 10.99 g/m*3 14.2 C 0 km/h
99 26-05-2014 08:10:00 14.3 C 11.06 g/m*3 14.3 C 0 km/h
100 26-05-2014 08:15:00 14.3 C 11.06 g/m*3 14.3 C 0 km/h
Sensor: Nr:Datum:Temp:Abs-Feuchte:Windchill:Wind:
Aussen-T/F 101 26-05-2014 08:20:00 14.4 C 11 g/m*3 14.4 C 0 km/h
102 26-05-2014 08:25:00 14.5 C 11.07 g/m*3 14.5 C 0 km/h
103 26-05-2014 08:30:00 14.6 C 11.14 g/m*3 14.6 C 0 km/h
104 26-05-2014 08:35:00 14.8 C 11.15 g/m*3 14.8 C 1.6 km/h
105 26-05-2014 08:40:00 15 C 11.16 g/m*3 15 C 1.6 km/h
106 26-05-2014 08:45:00 15.2 C 11.16 g/m*3 15.2 C 0 km/h
107 26-05-2014 08:50:00 15.4 C 11.43 g/m*3 15.4 C 1.6 km/h
108 26-05-2014 08:55:00 15.4 C 11.04 g/m*3 15.4 C 1.6 km/h
109 26-05-2014 09:00:00 15.5 C 11.37 g/m*3 15.5 C 0 km/h
110 26-05-2014 09:05:00 15.6 C 11.3 g/m*3 15.6 C 0 km/h
111 26-05-2014 09:10:00 15.6 C 11.17 g/m*3 15.6 C 0 km/h
112 26-05-2014 09:15:00 15.7 C 11.37 g/m*3 15.7 C 0 km/h
113 26-05-2014 09:20:00 15.7 C 11.11 g/m*3 15.7 C 1.6 km/h
114 26-05-2014 09:25:00 15.7 C 10.97 g/m*3 15.7 C 0 km/h
115 26-05-2014 09:30:00 15.8 C 11.31 g/m*3 15.8 C 0 km/h
116 26-05-2014 09:35:00 15.7 C 11.37 g/m*3 15.7 C 0 km/h
117 26-05-2014 09:40:00 15.7 C 11.51 g/m*3 15.7 C 0 km/h
118 26-05-2014 09:45:00 15.6 C 11.3 g/m*3 15.6 C 0 km/h
119 26-05-2014 09:50:00 15.6 C 11.44 g/m*3 15.6 C 0 km/h
120 26-05-2014 09:55:00 15.6 C 11.3 g/m*3 15.6 C 0 km/h
121 26-05-2014 10:00:00 15.8 C 11.17 g/m*3 15.8 C 1.6 km/h
122 26-05-2014 10:05:00 15.9 C 11.51 g/m*3 15.9 C 0 km/h
123 26-05-2014 10:10:00 15.9 C 11.51 g/m*3 15.9 C 0 km/h
124 26-05-2014 10:15:00 15.9 C 11.1 g/m*3 15.9 C 3.2 km/h
125 26-05-2014 10:20:00 16 C 11.17 g/m*3 16 C 1.6 km/h
Sensor: Nr:Datum:Temp:Abs-Feuchte:Windchill:Wind:
Aussen-T/F 126 26-05-2014 10:25:00 16.2 C 11.17 g/m*3 16.2 C 6.4 km/h
127 26-05-2014 10:30:00 16.4 C 11.31 g/m*3 16.4 C 4.8 km/h
128 26-05-2014 10:35:00 16.7 C 11.37 g/m*3 16.7 C 6.4 km/h
129 26-05-2014 10:40:00 16.9 C 11.22 g/m*3 16.9 C 6.4 km/h
130 26-05-2014 10:45:00 17 C 11.14 g/m*3 17 C 1.6 km/h
131 26-05-2014 10:50:00 17.2 C 11.42 g/m*3 17.2 C 4.8 km/h
132 26-05-2014 10:55:00 17.4 C 11.41 g/m*3 17.4 C 6.4 km/h
133 26-05-2014 11:00:00 17.5 C 11.48 g/m*3 17.5 C 8.1 km/h
134 26-05-2014 11:05:00 17.6 C 11.4 g/m*3 17.6 C 3.2 km/h
135 26-05-2014 11:10:00 17.7 C 11.47 g/m*3 17.7 C 6.4 km/h
136 26-05-2014 11:15:00 17.8 C 11.54 g/m*3 17.8 C 6.4 km/h
137 26-05-2014 11:20:00 17.9 C 11.3 g/m*3 17.9 C 6.4 km/h
138 26-05-2014 11:25:00 17.8 C 11.23 g/m*3 17.8 C 6.4 km/h
139 26-05-2014 11:30:00 17.8 C 11.23 g/m*3 17.8 C 6.4 km/h
140 26-05-2014 11:35:00 17.9 C 11.3 g/m*3 17.9 C 8.1 km/h
141 26-05-2014 11:40:00 18 C 11.37 g/m*3 18 C 8.1 km/h
142 26-05-2014 11:45:00 18 C 11.21 g/m*3 18 C 8.1 km/h
143 26-05-2014 11:50:00 18.1 C 11.59 g/m*3 18.1 C 9.7 km/h
144 26-05-2014 11:55:00 18.2 C 11.5 g/m*3 18.2 C 9.7 km/h
145 26-05-2014 12:00:00 18.3 C 11.73 g/m*3 18.3 C 6.4 km/h
146 26-05-2014 12:05:00 18.3 C 11.57 g/m*3 18.3 C 9.7 km/h
147 26-05-2014 12:10:00 18.3 C 11.73 g/m*3 18.3 C 6.4 km/h
148 26-05-2014 12:15:00 18.2 C 11.66 g/m*3 18.2 C 6.4 km/h
149 26-05-2014 12:20:00 18 C 11.37 g/m*3 18 C 6.4 km/h
150 26-05-2014 12:25:00 17.8 C 11.54 g/m*3 17.8 C 6.4 km/h
Sensor: Nr:Datum:Temp:Abs-Feuchte:Windchill:Wind:
Aussen-T/F 151 26-05-2014 12:30:00 17.7 C 11.47 g/m*3 17.7 C 4.8 km/h
152 26-05-2014 12:35:00 17.8 C 11.84 g/m*3 17.8 C 8.1 km/h
153 26-05-2014 12:40:00 17.9 C 11.91 g/m*3 17.9 C 6.4 km/h
154 26-05-2014 12:45:00 18.2 C 11.66 g/m*3 18.2 C 9.7 km/h
155 26-05-2014 12:50:00 18.5 C 12.34 g/m*3 18.5 C 11.3 km/h
156 26-05-2014 12:55:00 18.9 C 12.31 g/m*3 18.9 C 11.3 km/h
157 26-05-2014 13:00:00 19.3 C 12.44 g/m*3 19.3 C 9.7 km/h
158 26-05-2014 13:05:00 19.3 C 12.11 g/m*3 19.3 C 12.9 km/h
159 26-05-2014 13:10:00 19.6 C 12.83 g/m*3 19.6 C 12.9 km/h
160 26-05-2014 13:15:00 19.9 C 12.2 g/m*3 19.9 C 11.3 km/h
161 26-05-2014 13:20:00 19.8 C 12.3 g/m*3 19.8 C 9.7 km/h
162 26-05-2014 13:25:00 19.7 C 12.06 g/m*3 19.7 C 9.7 km/h
163 26-05-2014 13:30:00 19.9 C 12.2 g/m*3 19.9 C 8.1 km/h
164 26-05-2014 13:35:00 19.9 C 12.37 g/m*3 19.9 C 8.1 km/h
165 26-05-2014 13:40:00 19.8 C 11.96 g/m*3 19.8 C 8.1 km/h
166 26-05-2014 13:45:00 19.6 C 11.99 g/m*3 19.6 C 6.4 km/h
167 26-05-2014 13:50:00 19.6 C 12.15 g/m*3 19.6 C 4.8 km/h
168 26-05-2014 13:55:00 19.6 C 12.15 g/m*3 19.6 C 4.8 km/h
169 26-05-2014 14:00:00 19.6 C 11.99 g/m*3 19.6 C 4.8 km/h
170 26-05-2014 14:05:00 19.7 C 12.23 g/m*3 19.7 C 8.1 km/h
171 26-05-2014 14:10:00 19.8 C 12.3 g/m*3 19.8 C 9.7 km/h
172 26-05-2014 14:15:00 20.1 C 12.34 g/m*3 20.1 C 9.7 km/h
173 26-05-2014 14:20:00 20.3 C 12.49 g/m*3 20.3 C 8.1 km/h
174 26-05-2014 14:25:00 20.6 C 12.35 g/m*3 20.6 C 9.7 km/h
175 26-05-2014 14:30:00 20.7 C 12.24 g/m*3 20.7 C 8.1 km/h
Sensor: Nr:Datum:Temp:Abs-Feuchte:Windchill:Wind:
Aussen-T/F 176 26-05-2014 14:35:00 20.9 C 12.02 g/m*3 20.9 C 11.3 km/h
177 26-05-2014 14:40:00 20.9 C 12.2 g/m*3 20.9 C 12.9 km/h
178 26-05-2014 14:45:00 20.9 C 11.84 g/m*3 20.9 C 11.3 km/h
179 26-05-2014 14:50:00 20.7 C 11.88 g/m*3 20.7 C 14.5 km/h
180 26-05-2014 14:55:00 20.8 C 12.31 g/m*3 20.8 C 9.7 km/h
181 26-05-2014 15:00:00 21 C 12.46 g/m*3 21 C 9.7 km/h
182 26-05-2014 15:05:00 21.2 C 12.42 g/m*3 21.2 C 8.1 km/h
183 26-05-2014 15:10:00 21.2 C 11.86 g/m*3 21.2 C 3.2 km/h
184 26-05-2014 15:15:00 21.2 C 12.05 g/m*3 21.2 C 6.4 km/h
185 26-05-2014 15:20:00 21.1 C 11.98 g/m*3 21.1 C 8.1 km/h
186 26-05-2014 15:25:00 21 C 11.91 g/m*3 21 C 4.8 km/h
187 26-05-2014 15:30:00 21 C 11.91 g/m*3 21 C 4.8 km/h
188 26-05-2014 15:35:00 21.1 C 12.16 g/m*3 21.1 C 3.2 km/h
189 26-05-2014 15:40:00 21.1 C 12.16 g/m*3 21.1 C 6.4 km/h
190 26-05-2014 15:45:00 21.2 C 11.86 g/m*3 21.2 C 4.8 km/h
191 26-05-2014 15:50:00 21.6 C 12.52 g/m*3 21.6 C 4.8 km/h
192 26-05-2014 15:55:00 21.6 C 12.14 g/m*3 21.6 C 9.7 km/h
193 26-05-2014 16:00:00 21.5 C 12.07 g/m*3 21.5 C 6.4 km/h
194 26-05-2014 16:05:00 21.6 C 12.33 g/m*3 21.6 C 8.1 km/h
195 26-05-2014 16:10:00 21.7 C 12.21 g/m*3 21.7 C 6.4 km/h
196 26-05-2014 16:15:00 21.7 C 12.4 g/m*3 21.7 C 8.1 km/h
197 26-05-2014 16:20:00 21.9 C 11.96 g/m*3 21.9 C 8.1 km/h
198 26-05-2014 16:25:00 22.1 C 12.49 g/m*3 22.1 C 9.7 km/h
199 26-05-2014 16:30:00 22.1 C 12.3 g/m*3 22.1 C 8.1 km/h
200 26-05-2014 16:35:00 22.1 C 12.49 g/m*3 22.1 C 4.8 km/h
Sensor: Nr:Datum:Temp:Abs-Feuchte:Windchill:Wind:
Aussen-T/F 201 26-05-2014 16:40:00 22.1 C 11.91 g/m*3 22.1 C 1.6 km/h
202 26-05-2014 16:45:00 22 C 12.23 g/m*3 22 C 3.2 km/h
203 26-05-2014 16:50:00 21.8 C 12.28 g/m*3 21.8 C 4.8 km/h
204 26-05-2014 16:55:00 21.8 C 12.47 g/m*3 21.8 C 8.1 km/h
205 26-05-2014 17:00:00 21.8 C 12.66 g/m*3 21.8 C 4.8 km/h
206 26-05-2014 17:05:00 21.9 C 12.54 g/m*3 21.9 C 6.4 km/h
207 26-05-2014 17:10:00 21.9 C 12.35 g/m*3 21.9 C 6.4 km/h
208 26-05-2014 17:15:00 21.9 C 12.16 g/m*3 21.9 C 4.8 km/h
209 26-05-2014 17:20:00 21.8 C 12.47 g/m*3 21.8 C 6.4 km/h
210 26-05-2014 17:25:00 21.6 C 11.95 g/m*3 21.6 C 3.2 km/h
211 26-05-2014 17:30:00 21.5 C 12.63 g/m*3 21.5 C 3.2 km/h
212 26-05-2014 17:35:00 21.4 C 13.31 g/m*3 21.4 C 1.6 km/h
213 26-05-2014 17:40:00 21.3 C 12.12 g/m*3 21.3 C 4.8 km/h
214 26-05-2014 17:45:00 21.3 C 12.3 g/m*3 21.3 C 3.2 km/h
215 26-05-2014 17:50:00 21.4 C 12.19 g/m*3 21.4 C 3.2 km/h
216 26-05-2014 17:55:00 21.5 C 12.82 g/m*3 21.5 C 1.6 km/h
217 26-05-2014 18:00:00 21.4 C 13.12 g/m*3 21.4 C 3.2 km/h
218 26-05-2014 18:05:00 21.3 C 13.05 g/m*3 21.3 C 0 km/h
219 26-05-2014 18:10:00 21.2 C 13.53 g/m*3 21.2 C 0 km/h
220 26-05-2014 18:15:00 20.9 C 13.48 g/m*3 20.9 C 0 km/h
221 26-05-2014 18:20:00 20.6 C 13.6 g/m*3 20.6 C 0 km/h
222 26-05-2014 18:25:00 20.5 C 13.52 g/m*3 20.5 C 0 km/h
223 26-05-2014 18:30:00 20.4 C 12.56 g/m*3 20.4 C 6.4 km/h
224 26-05-2014 18:35:00 20.4 C 12.38 g/m*3 20.4 C 4.8 km/h
225 26-05-2014 18:40:00 20.6 C 12.71 g/m*3 20.6 C 4.8 km/h
Sensor: Nr:Datum:Temp:Abs-Feuchte:Windchill:Wind:
Aussen-T/F 226 26-05-2014 18:45:00 20.6 C 12.89 g/m*3 20.6 C 3.2 km/h
227 26-05-2014 18:50:00 20.6 C 12.71 g/m*3 20.6 C 4.8 km/h
228 26-05-2014 18:55:00 20.6 C 12.89 g/m*3 20.6 C 0 km/h
229 26-05-2014 19:00:00 20.4 C 12.91 g/m*3 20.4 C 0 km/h
230 26-05-2014 19:05:00 20.3 C 13.01 g/m*3 20.3 C 0 km/h
231 26-05-2014 19:10:00 20.2 C 12.94 g/m*3 20.2 C 0 km/h
232 26-05-2014 19:15:00 20.1 C 13.21 g/m*3 20.1 C 0 km/h
233 26-05-2014 19:20:00 19.9 C 13.4 g/m*3 19.9 C 0 km/h
234 26-05-2014 19:25:00 19.8 C 13.32 g/m*3 19.8 C 0 km/h
235 26-05-2014 19:30:00 19.6 C 13.17 g/m*3 19.6 C 0 km/h
236 26-05-2014 19:35:00 19.6 C 13.51 g/m*3 19.6 C 0 km/h
237 26-05-2014 19:40:00 19.5 C 12.92 g/m*3 19.5 C 0 km/h
238 26-05-2014 19:45:00 19.4 C 13.35 g/m*3 19.4 C 0 km/h
239 26-05-2014 19:50:00 19.4 C 12.85 g/m*3 19.4 C 0 km/h
240 26-05-2014 19:55:00 19.4 C 13.01 g/m*3 19.4 C 0 km/h
241 26-05-2014 20:00:00 19.4 C 13.35 g/m*3 19.4 C 1.6 km/h
242 26-05-2014 20:05:00 19.3 C 13.27 g/m*3 19.3 C 0 km/h
243 26-05-2014 20:10:00 19.2 C 13.19 g/m*3 19.2 C 0 km/h
244 26-05-2014 20:15:00 19.1 C 12.79 g/m*3 19.1 C 0 km/h
245 26-05-2014 20:20:00 18.9 C 12.8 g/m*3 18.9 C 0 km/h
246 26-05-2014 20:25:00 18.7 C 12.65 g/m*3 18.7 C 0 km/h
247 26-05-2014 20:30:00 18.6 C 12.89 g/m*3 18.6 C 1.6 km/h
248 26-05-2014 20:35:00 18.3 C 12.98 g/m*3 18.3 C 0 km/h
249 26-05-2014 20:40:00 18.1 C 12.82 g/m*3 18.1 C 1.6 km/h
250 26-05-2014 20:45:00 17.9 C 12.67 g/m*3 17.9 C 0 km/h
Sensor: Nr:Datum:Temp:Abs-Feuchte:Windchill:Wind:
Aussen-T/F 251 26-05-2014 20:50:00 17.7 C 12.52 g/m*3 17.7 C 0 km/h
252 26-05-2014 20:55:00 17.7 C 12.52 g/m*3 17.7 C 0 km/h
253 26-05-2014 21:00:00 17.7 C 12.52 g/m*3 17.7 C 3.2 km/h
254 26-05-2014 21:05:00 17.6 C 12.45 g/m*3 17.6 C 0 km/h
255 26-05-2014 21:10:00 17.5 C 12.52 g/m*3 17.5 C 0 km/h
256 26-05-2014 21:15:00 17.4 C 12.45 g/m*3 17.4 C 0 km/h
257 26-05-2014 21:20:00 17.3 C 12.52 g/m*3 17.3 C 0 km/h
258 26-05-2014 21:25:00 17.3 C 12.67 g/m*3 17.3 C 0 km/h
259 26-05-2014 21:30:00 17.3 C 12.67 g/m*3 17.3 C 0 km/h
260 26-05-2014 21:35:00 17.3 C 12.67 g/m*3 17.3 C 0 km/h
261 26-05-2014 21:40:00 17.3 C 12.67 g/m*3 17.3 C 0 km/h
262 26-05-2014 21:45:00 17.3 C 12.67 g/m*3 17.3 C 0 km/h
263 26-05-2014 21:50:00 17.3 C 12.67 g/m*3 17.3 C 0 km/h
264 26-05-2014 21:55:00 17.3 C 12.52 g/m*3 17.3 C 0 km/h
265 26-05-2014 22:00:00 17.3 C 12.52 g/m*3 17.3 C 0 km/h
266 26-05-2014 22:05:00 17.4 C 12.45 g/m*3 17.4 C 0 km/h
267 26-05-2014 22:10:00 17.4 C 12.45 g/m*3 17.4 C 1.6 km/h
268 26-05-2014 22:15:00 17.5 C 12.52 g/m*3 17.5 C 1.6 km/h
269 26-05-2014 22:20:00 17.6 C 12.6 g/m*3 17.6 C 0 km/h
270 26-05-2014 22:25:00 17.6 C 12.9 g/m*3 17.6 C 0 km/h
271 26-05-2014 22:30:00 17.4 C 12.89 g/m*3 17.4 C 0 km/h
272 26-05-2014 22:35:00 17.3 C 12.96 g/m*3 17.3 C 1.6 km/h
273 26-05-2014 22:40:00 17.2 C 13.03 g/m*3 17.2 C 0 km/h
274 26-05-2014 22:45:00 17.1 C 12.96 g/m*3 17.1 C 0 km/h
275 26-05-2014 22:50:00 16.9 C 12.94 g/m*3 16.9 C 1.6 km/h
Sensor: Nr:Datum:Temp:Abs-Feuchte:Windchill:Wind:
Aussen-T/F 276 26-05-2014 22:55:00 16.8 C 12.87 g/m*3 16.8 C 0 km/h
277 26-05-2014 23:00:00 16.8 C 13.01 g/m*3 16.8 C 1.6 km/h
278 26-05-2014 23:05:00 16.7 C 12.93 g/m*3 16.7 C 0 km/h
279 26-05-2014 23:10:00 16.7 C 13.07 g/m*3 16.7 C 4.8 km/h
280 26-05-2014 23:15:00 16.6 C 13 g/m*3 16.6 C 3.2 km/h
281 26-05-2014 23:20:00 16.6 C 13 g/m*3 16.6 C 0 km/h
282 26-05-2014 23:25:00 16.5 C 13.06 g/m*3 16.5 C 3.2 km/h
283 26-05-2014 23:30:00 16.4 C 12.98 g/m*3 16.4 C 0 km/h
284 26-05-2014 23:35:00 16.3 C 12.9 g/m*3 16.3 C 0 km/h
285 26-05-2014 23:40:00 16.3 C 13.04 g/m*3 16.3 C 1.6 km/h
286 26-05-2014 23:45:00 16.3 C 13.04 g/m*3 16.3 C 0 km/h
287 26-05-2014 23:50:00 16.2 C 12.96 g/m*3 16.2 C 1.6 km/h
288 26-05-2014 23:55:00 16.2 C 12.96 g/m*3 16.2 C 0 km/h

Legende:
   Min
   Max


Maximal/Minimal-Werte vom 26.05.2014 - 26.05.2014

Sensor Min Max Avg
Temp
(Aussen-T/F)
12.7 °C
26-05-2014  04:35:00
22.1 °C
26-05-2014  16:25:00
16.86 °C
Abs-Feuchte
(Aussen-T/F)
9.71 g/m*3
26-05-2014  01:40:00
13.6 g/m*3
26-05-2014  18:20:00
11.45 g/m*3
Windchill
(Aussen-T/F)
12.7 C
26-05-2014  04:35:00
22.1 C
26-05-2014  16:25:00
16.8 C

Die Daten stammen von einer Davis Vantage Pro 2 Wetter-Station und werden unter Linux mit der Software wview2wettercgi und aufbereitet. Alle Angaben erfolgen ohne Gewähr für ihre Vollständigkeit oder Richtigkeit.
Kontakt: Rainer Krienke krienke@uni-koblenz.de . Meine Webseiten an der Uni Koblenz oder privat.
Version: $Revision: 0.78 $